createdAt,value
2023-03-19T00:02:17.472Z,14.37
2023-03-19T00:04:46.724Z,14.60
2023-03-19T00:07:15.875Z,14.33
2023-03-19T00:09:44.279Z,14.83
2023-03-19T00:12:13.197Z,14.23
2023-03-19T00:14:43.614Z,14.67
2023-03-19T00:17:12.050Z,16.00
2023-03-19T00:19:41.021Z,16.10
2023-03-19T00:22:09.815Z,15.83
2023-03-19T00:24:38.290Z,16.67
2023-03-19T00:27:07.000Z,16.67
2023-03-19T00:29:36.372Z,15.93
2023-03-19T00:32:07.392Z,15.77
2023-03-19T00:34:36.122Z,15.20
2023-03-19T00:37:04.480Z,13.97
2023-03-19T00:39:33.078Z,15.17
2023-03-19T00:42:01.586Z,14.77
2023-03-19T00:44:30.036Z,14.50
2023-03-19T00:46:58.508Z,13.60
2023-03-19T00:49:28.513Z,13.67
2023-03-19T00:51:57.337Z,13.47
2023-03-19T00:54:27.591Z,12.80
2023-03-19T00:56:56.203Z,14.10
2023-03-19T00:59:25.609Z,12.93
2023-03-19T01:01:54.413Z,13.70
2023-03-19T01:04:24.125Z,14.97
2023-03-19T01:06:54.024Z,14.33
2023-03-19T01:09:22.938Z,14.50
2023-03-19T01:11:51.459Z,14.23
2023-03-19T01:14:19.897Z,15.40
2023-03-19T01:16:48.366Z,16.27
2023-03-19T01:19:16.989Z,17.30
2023-03-19T01:21:46.538Z,16.53
2023-03-19T01:24:16.807Z,16.80
2023-03-19T01:26:45.461Z,16.87
2023-03-19T01:29:13.819Z,17.33
2023-03-19T01:31:42.280Z,16.33
2023-03-19T01:34:11.418Z,15.87
2023-03-19T01:36:40.070Z,14.83
2023-03-19T01:39:08.473Z,14.37
2023-03-19T01:41:38.231Z,14.80
2023-03-19T01:44:21.734Z,14.80
2023-03-19T01:46:50.385Z,13.93
2023-03-19T01:49:19.238Z,13.97
2023-03-19T01:51:47.915Z,15.83
2023-03-19T01:54:17.324Z,14.00
2023-03-19T01:56:47.321Z,15.03
2023-03-19T01:59:17.454Z,13.87
2023-03-19T02:01:48.148Z,14.87
2023-03-19T02:04:16.587Z,14.73
2023-03-19T02:06:45.209Z,14.87
2023-03-19T02:09:14.268Z,13.50
2023-03-19T02:11:42.706Z,13.50
2023-03-19T02:14:13.659Z,13.77
2023-03-19T02:16:42.040Z,14.50
2023-03-19T02:19:11.490Z,14.27
2023-03-19T02:21:39.927Z,13.87
2023-03-19T02:24:09.169Z,13.20
2023-03-19T02:26:38.988Z,12.53
2023-03-19T02:29:07.525Z,13.63
2023-03-19T02:31:35.903Z,14.43
2023-03-19T02:34:04.667Z,13.37
2023-03-19T02:36:34.400Z,13.00
2023-03-19T02:39:02.978Z,14.77
2023-03-19T02:41:31.890Z,13.53
2023-03-19T02:44:01.737Z,14.73
2023-03-19T02:46:30.383Z,14.63
2023-03-19T02:48:59.011Z,15.00
2023-03-19T02:51:27.427Z,14.60
2023-03-19T02:53:55.890Z,14.83
2023-03-19T02:56:24.892Z,14.97
2023-03-19T02:58:53.467Z,16.43
2023-03-19T03:01:23.508Z,16.97
2023-03-19T03:03:51.991Z,16.10
2023-03-19T03:06:20.485Z,16.93
2023-03-19T03:08:48.954Z,15.37
2023-03-19T03:11:17.409Z,17.37
2023-03-19T03:13:45.995Z,17.70
2023-03-19T03:16:14.336Z,19.27
2023-03-19T03:18:44.109Z,20.20
2023-03-19T03:21:12.640Z,19.47
2023-03-19T03:23:41.262Z,21.73
2023-03-19T03:26:09.772Z,20.73
2023-03-19T03:28:38.326Z,20.67
2023-03-19T03:31:06.820Z,20.27
2023-03-19T03:33:35.277Z,20.40
2023-03-19T03:36:05.132Z,20.70
2023-03-19T03:38:33.692Z,21.53
2023-03-19T03:41:02.332Z,21.20
2023-03-19T03:43:30.735Z,21.77
2023-03-19T03:45:59.611Z,22.17
2023-03-19T03:48:28.523Z,22.40
2023-03-19T03:50:57.169Z,21.13
2023-03-19T03:53:27.012Z,22.73
2023-03-19T03:55:55.801Z,23.47
2023-03-19T03:58:24.294Z,21.97
2023-03-19T04:00:52.610Z,22.43
2023-03-19T04:03:21.088Z,22.90
2023-03-19T04:05:49.829Z,22.67
2023-03-19T04:08:18.358Z,22.47
2023-03-19T04:10:48.150Z,23.90
2023-03-19T04:13:16.760Z,23.27
2023-03-19T04:15:45.419Z,23.77
2023-03-19T04:18:13.773Z,22.67
2023-03-19T04:20:43.081Z,24.87
2023-03-19T04:23:11.561Z,23.30
2023-03-19T04:25:41.558Z,25.70
2023-03-19T04:28:11.502Z,23.17
2023-03-19T04:30:40.147Z,26.53
2023-03-19T04:33:08.678Z,24.93
2023-03-19T04:35:37.270Z,25.17
2023-03-19T04:38:05.886Z,24.70
2023-03-19T04:40:34.457Z,23.93
2023-03-19T04:43:03.028Z,23.23
2023-03-19T04:45:33.107Z,23.47
2023-03-19T04:48:02.479Z,24.33
2023-03-19T04:50:31.554Z,23.57
2023-03-19T04:53:00.224Z,25.77
2023-03-19T04:55:28.564Z,25.87
2023-03-19T04:57:57.116Z,25.77
2023-03-19T05:00:26.141Z,25.13
2023-03-19T05:02:55.953Z,26.93
2023-03-19T05:05:24.451Z,27.47
2023-03-19T05:07:52.872Z,27.87
2023-03-19T05:10:21.339Z,26.63
2023-03-19T05:12:49.748Z,27.63
2023-03-19T05:15:18.381Z,25.43
2023-03-19T05:17:46.789Z,26.30
2023-03-19T05:20:16.755Z,26.63
2023-03-19T05:22:45.146Z,26.13
2023-03-19T05:25:13.546Z,26.97
2023-03-19T05:27:41.895Z,25.50
2023-03-19T05:30:11.020Z,27.70
2023-03-19T05:32:40.783Z,25.57
2023-03-19T05:35:09.808Z,28.10
2023-03-19T05:37:39.856Z,27.53
2023-03-19T05:40:08.448Z,28.77
2023-03-19T05:42:36.900Z,28.83
2023-03-19T05:45:05.702Z,26.13
2023-03-19T05:47:35.126Z,27.70
2023-03-19T05:50:03.566Z,29.73
2023-03-19T05:52:32.608Z,29.40
2023-03-19T05:55:02.544Z,28.90
2023-03-19T05:57:31.431Z,29.27
2023-03-19T05:59:59.951Z,28.90
2023-03-19T06:02:28.402Z,30.93
2023-03-19T06:04:57.147Z,30.47
2023-03-19T06:07:25.582Z,29.73
2023-03-19T06:09:54.295Z,30.57
2023-03-19T06:12:24.929Z,30.07
2023-03-19T06:14:53.411Z,30.33
2023-03-19T06:17:22.338Z,30.37
2023-03-19T06:19:50.786Z,31.87
2023-03-19T06:22:19.379Z,31.73
2023-03-19T06:24:48.258Z,31.00
2023-03-19T06:27:16.830Z,29.80
2023-03-19T06:29:46.783Z,30.83
2023-03-19T06:32:15.240Z,31.30
2023-03-19T06:34:43.978Z,32.17
2023-03-19T06:37:12.432Z,31.83
2023-03-19T06:39:40.869Z,31.67
2023-03-19T06:42:09.538Z,32.33
2023-03-19T06:44:38.053Z,32.33
2023-03-19T06:47:08.598Z,31.87
2023-03-19T06:49:37.468Z,31.07
2023-03-19T06:52:06.247Z,28.13
2023-03-19T06:54:36.078Z,28.60
2023-03-19T06:57:05.808Z,29.03
2023-03-19T06:59:34.504Z,29.57
2023-03-19T07:02:03.246Z,29.17
2023-03-19T07:04:33.118Z,27.07
2023-03-19T07:07:02.568Z,27.50
2023-03-19T07:09:31.190Z,26.53
2023-03-19T07:11:59.616Z,25.80
2023-03-19T07:14:28.659Z,27.17
2023-03-19T07:16:57.025Z,24.53
2023-03-19T07:19:25.877Z,24.87
2023-03-19T07:21:55.669Z,23.70
2023-03-19T07:24:24.290Z,24.93
2023-03-19T07:26:52.786Z,23.80
2023-03-19T07:29:21.280Z,24.83
2023-03-19T07:31:49.886Z,24.60
2023-03-19T07:34:18.399Z,25.03
2023-03-19T07:36:47.171Z,24.43
2023-03-19T07:39:17.016Z,27.80
2023-03-19T07:41:47.780Z,26.33
2023-03-19T07:44:16.156Z,24.97
2023-03-19T07:46:44.605Z,25.70
2023-03-19T07:49:13.156Z,26.40
2023-03-19T07:51:41.752Z,26.20
2023-03-19T07:54:10.265Z,27.93
2023-03-19T07:56:40.095Z,29.13
2023-03-19T07:59:08.750Z,28.10
2023-03-19T08:01:37.160Z,28.07
2023-03-19T08:04:05.633Z,29.00
2023-03-19T08:06:34.448Z,28.37
2023-03-19T08:09:03.053Z,28.03
2023-03-19T08:11:31.755Z,29.60
2023-03-19T08:14:01.688Z,29.47
2023-03-19T08:16:30.147Z,29.40
2023-03-19T08:18:58.590Z,29.50
2023-03-19T08:21:27.418Z,31.67
2023-03-19T08:23:55.851Z,29.83
2023-03-19T08:26:24.297Z,31.17
2023-03-19T08:28:52.930Z,29.80
2023-03-19T08:31:23.322Z,30.57
2023-03-19T08:33:52.684Z,28.47
2023-03-19T08:36:21.301Z,27.57
2023-03-19T08:38:54.636Z,27.83
2023-03-19T08:41:23.100Z,28.30
2023-03-19T08:43:51.640Z,28.60
2023-03-19T08:46:34.736Z,27.07
2023-03-19T08:49:06.476Z,26.73
2023-03-19T08:51:34.932Z,28.73
2023-03-19T08:54:03.591Z,27.70
2023-03-19T08:56:31.974Z,28.30
2023-03-19T08:59:00.514Z,28.73
2023-03-19T09:01:30.563Z,27.73
2023-03-19T09:03:58.950Z,28.77
2023-03-19T09:06:27.562Z,27.83
2023-03-19T09:08:56.163Z,27.47
2023-03-19T09:11:24.581Z,26.33
2023-03-19T09:13:53.144Z,24.70
2023-03-19T09:16:21.690Z,23.03
2023-03-19T09:18:51.869Z,21.00
2023-03-19T09:21:20.374Z,22.27
2023-03-19T09:23:53.129Z,21.17
2023-03-19T09:26:21.757Z,24.37
2023-03-19T09:28:50.373Z,23.63
2023-03-19T09:31:18.789Z,24.40
2023-03-19T09:33:47.354Z,24.93
2023-03-19T09:36:17.306Z,26.37
2023-03-19T09:38:46.670Z,25.70
2023-03-19T09:41:16.457Z,26.60
2023-03-19T09:43:52.969Z,24.63
2023-03-19T09:46:22.863Z,24.83
2023-03-19T09:48:52.338Z,26.10
2023-03-19T09:51:23.581Z,25.40
2023-03-19T09:53:52.852Z,25.87
2023-03-19T09:56:21.182Z,25.57
2023-03-19T09:58:49.616Z,28.47
2023-03-19T10:01:22.901Z,25.70
2023-03-19T10:03:54.258Z,26.37
2023-03-19T10:06:27.486Z,25.63
2023-03-19T10:08:59.098Z,26.47
2023-03-19T10:11:31.265Z,24.17
2023-03-19T10:14:02.101Z,25.00
2023-03-19T10:16:30.670Z,25.40
2023-03-19T10:19:00.482Z,27.80
2023-03-19T10:21:31.045Z,26.73
2023-03-19T10:24:00.335Z,28.00
2023-03-19T10:26:31.822Z,28.70
2023-03-19T10:29:01.954Z,30.67
2023-03-19T10:31:30.658Z,31.03
2023-03-19T10:34:00.659Z,29.80
2023-03-19T10:36:29.406Z,31.03
2023-03-19T10:38:59.163Z,30.03
2023-03-19T10:41:32.781Z,30.37
2023-03-19T10:44:02.002Z,29.40
2023-03-19T10:46:30.795Z,28.70
2023-03-19T10:48:59.283Z,31.40
2023-03-19T10:51:28.025Z,27.63
2023-03-19T10:53:56.821Z,25.40
2023-03-19T10:56:27.100Z,22.30
2023-03-19T10:58:59.005Z,24.47
2023-03-19T11:01:30.864Z,23.83
2023-03-19T11:03:59.647Z,22.07
2023-03-19T11:06:28.738Z,21.20
2023-03-19T11:08:58.132Z,20.67
2023-03-19T11:11:30.051Z,21.63
2023-03-19T11:14:01.611Z,19.23
2023-03-19T11:16:30.333Z,20.67
2023-03-19T11:18:58.760Z,20.37
2023-03-19T11:21:33.210Z,20.87
2023-03-19T11:24:03.490Z,21.03
2023-03-19T11:26:39.915Z,21.73
2023-03-19T11:29:11.496Z,22.37
2023-03-19T11:31:43.706Z,23.70
2023-03-19T11:34:17.697Z,22.10
2023-03-19T11:36:47.510Z,22.80
2023-03-19T11:39:19.602Z,22.33
2023-03-19T11:41:54.520Z,23.83
2023-03-19T11:44:23.927Z,24.37
2023-03-19T11:46:55.628Z,22.60
2023-03-19T11:49:29.901Z,21.90
2023-03-19T11:52:02.466Z,21.17
2023-03-19T11:54:33.279Z,22.40
2023-03-19T11:57:04.007Z,22.60
2023-03-19T11:59:44.636Z,24.20
2023-03-19T12:02:22.817Z,25.13
2023-03-19T12:04:53.942Z,28.23
2023-03-19T12:07:23.785Z,28.37
2023-03-19T12:09:55.018Z,29.13
2023-03-19T12:12:27.108Z,29.13
2023-03-19T12:14:59.676Z,26.97
2023-03-19T12:17:31.729Z,28.00
2023-03-19T12:20:04.048Z,25.90
2023-03-19T12:22:36.404Z,27.07
2023-03-19T12:25:14.034Z,26.87
2023-03-19T12:27:44.652Z,26.40
2023-03-19T12:30:18.497Z,25.83
2023-03-19T12:32:51.824Z,26.27
2023-03-19T12:35:20.971Z,25.33
2023-03-19T12:37:52.600Z,24.13
2023-03-19T12:40:24.716Z,24.50
2023-03-19T12:42:54.986Z,23.00
2023-03-19T12:45:26.617Z,23.50
2023-03-19T12:47:57.219Z,22.07
2023-03-19T12:50:26.369Z,21.90
2023-03-19T12:52:57.838Z,21.57
2023-03-19T12:55:28.627Z,19.07
2023-03-19T12:57:58.900Z,19.20
2023-03-19T13:00:28.764Z,18.87
2023-03-19T13:02:58.368Z,18.80
2023-03-19T13:05:28.929Z,17.00
2023-03-19T13:07:59.716Z,16.27
2023-03-19T13:10:28.205Z,14.67
2023-03-19T13:12:58.153Z,15.17
2023-03-19T13:15:28.257Z,14.60
2023-03-19T13:18:01.987Z,14.73
2023-03-19T13:20:32.097Z,14.40
2023-03-19T13:23:02.023Z,13.70
2023-03-19T13:25:33.241Z,13.53
2023-03-19T13:28:03.027Z,14.00
2023-03-19T13:30:32.257Z,12.83
2023-03-19T13:33:04.371Z,15.17
2023-03-19T13:35:36.348Z,15.30
2023-03-19T13:38:06.202Z,14.43
2023-03-19T13:40:39.055Z,15.00
2023-03-19T13:43:27.321Z,13.53
2023-03-19T13:45:57.318Z,14.23
2023-03-19T13:48:26.535Z,13.50
2023-03-19T13:50:57.056Z,13.77
2023-03-19T13:53:35.544Z,13.50
2023-03-19T13:56:12.805Z,14.33
2023-03-19T13:58:54.327Z,14.20
2023-03-19T14:01:41.328Z,15.50
2023-03-19T14:04:17.694Z,14.37
2023-03-19T14:06:46.957Z,12.50
2023-03-19T14:09:39.905Z,12.27
2023-03-19T14:12:21.915Z,12.33
2023-03-19T14:14:52.394Z,10.27
2023-03-19T14:17:21.805Z,9.87
2023-03-19T14:19:50.503Z,8.90
2023-03-19T14:22:22.799Z,10.47
2023-03-19T14:24:58.256Z,8.53
2023-03-19T14:27:29.538Z,8.13
2023-03-19T14:30:00.789Z,9.60
2023-03-19T14:32:32.844Z,9.77
2023-03-19T14:35:01.354Z,9.67
2023-03-19T14:37:34.641Z,8.30
2023-03-19T14:40:05.693Z,8.53
2023-03-19T14:42:34.462Z,9.03
2023-03-19T14:45:22.216Z,9.90
2023-03-19T14:47:54.581Z,9.00
2023-03-19T14:50:42.015Z,10.60
2023-03-19T14:53:14.708Z,9.90
2023-03-19T14:55:43.580Z,11.03
2023-03-19T14:58:13.042Z,11.63
2023-03-19T15:00:47.095Z,11.80
2023-03-19T15:03:20.940Z,12.70
2023-03-19T15:05:50.818Z,12.20
2023-03-19T15:08:22.136Z,13.20
2023-03-19T15:10:53.128Z,12.07
2023-03-19T15:13:27.258Z,11.70
2023-03-19T15:16:03.205Z,12.10
2023-03-19T15:18:31.751Z,10.67
2023-03-19T15:21:00.586Z,10.30
2023-03-19T15:23:29.674Z,10.27
2023-03-19T15:26:00.283Z,9.70
2023-03-19T15:28:29.091Z,10.10
2023-03-19T15:31:05.634Z,9.23
2023-03-19T15:33:44.796Z,10.37
2023-03-19T15:36:16.372Z,10.37
2023-03-19T15:38:45.667Z,10.93
2023-03-19T15:41:14.228Z,11.53
2023-03-19T15:43:42.756Z,12.90
2023-03-19T15:46:12.551Z,15.10
2023-03-19T15:48:43.261Z,14.53
2023-03-19T15:51:11.819Z,14.90
2023-03-19T15:53:40.295Z,15.83
2023-03-19T15:56:09.407Z,16.30
2023-03-19T15:58:39.646Z,14.80
2023-03-19T16:01:08.672Z,15.63
2023-03-19T16:03:38.982Z,15.67
2023-03-19T16:06:09.468Z,12.47
2023-03-19T16:08:38.085Z,11.50
2023-03-19T16:11:16.040Z,10.97
2023-03-19T16:13:48.302Z,12.70
2023-03-19T16:16:17.704Z,13.67
2023-03-19T16:18:50.747Z,14.07
2023-03-19T16:21:20.778Z,14.87
2023-03-19T16:23:52.492Z,15.30
2023-03-19T16:26:22.226Z,15.57
2023-03-19T16:28:51.931Z,16.20
2023-03-19T16:31:26.471Z,14.90
2023-03-19T16:33:55.498Z,16.67
2023-03-19T16:36:25.472Z,16.40
2023-03-19T16:38:57.801Z,15.13
2023-03-19T16:41:27.472Z,15.77
2023-03-19T16:43:56.239Z,16.33
2023-03-19T16:46:24.841Z,15.53
2023-03-19T16:48:53.288Z,14.40
2023-03-19T16:51:21.866Z,13.33
2023-03-19T16:53:51.779Z,13.37
2023-03-19T16:56:20.352Z,11.93
2023-03-19T16:58:49.006Z,12.33
2023-03-19T17:01:18.087Z,11.83
2023-03-19T17:03:47.076Z,12.20
2023-03-19T17:06:16.059Z,10.43
2023-03-19T17:08:44.613Z,10.20
2023-03-19T17:11:26.288Z,8.27
2023-03-19T17:13:55.149Z,9.40
2023-03-19T17:16:24.028Z,9.13
2023-03-19T17:18:52.981Z,6.87
2023-03-19T17:21:23.816Z,7.17
2023-03-19T17:23:53.188Z,6.90
2023-03-19T17:26:23.979Z,7.23
2023-03-19T17:28:53.773Z,7.37
2023-03-19T17:31:23.319Z,6.53
2023-03-19T17:33:52.301Z,6.67
2023-03-19T17:36:20.881Z,7.60
2023-03-19T17:38:49.240Z,7.37
2023-03-19T17:41:18.625Z,7.67
2023-03-19T17:43:48.645Z,7.77
2023-03-19T17:46:17.428Z,7.03
2023-03-19T17:48:46.035Z,6.20
2023-03-19T17:51:14.452Z,8.47
2023-03-19T17:53:43.356Z,7.27
2023-03-19T17:56:16.060Z,7.70
2023-03-19T17:58:44.794Z,6.60
2023-03-19T18:01:24.533Z,8.50
2023-03-19T18:03:53.605Z,7.80
2023-03-19T18:06:22.718Z,8.00
2023-03-19T18:08:51.558Z,8.63
2023-03-19T18:11:20.088Z,8.93
2023-03-19T18:13:48.676Z,8.00
2023-03-19T18:16:20.330Z,7.73
2023-03-19T18:18:48.734Z,6.93
2023-03-19T18:21:18.438Z,7.67
2023-03-19T18:23:46.903Z,7.27
2023-03-19T18:26:17.108Z,6.90
2023-03-19T18:28:45.878Z,6.23
2023-03-19T18:31:15.585Z,7.00
2023-03-19T18:33:45.540Z,5.77
2023-03-19T18:36:14.785Z,6.17
2023-03-19T18:38:43.201Z,5.67
2023-03-19T18:41:11.932Z,6.33
2023-03-19T18:43:40.421Z,5.67
2023-03-19T18:46:10.982Z,6.10
2023-03-19T18:48:39.572Z,5.53
2023-03-19T18:51:10.958Z,5.73
2023-03-19T18:53:39.658Z,4.97
2023-03-19T18:56:12.779Z,5.70
2023-03-19T18:58:42.010Z,4.97
2023-03-19T19:01:11.500Z,5.10
2023-03-19T19:03:40.241Z,4.97
2023-03-19T19:06:13.421Z,5.07
2023-03-19T19:08:42.206Z,5.67
2023-03-19T19:11:10.610Z,5.43
2023-03-19T19:13:55.262Z,5.50
2023-03-19T19:16:24.839Z,5.23
2023-03-19T19:18:53.995Z,4.97
2023-03-19T19:21:24.594Z,5.77
2023-03-19T19:23:53.142Z,5.60
2023-03-19T19:26:23.093Z,6.57
2023-03-19T19:28:51.769Z,6.33
2023-03-19T19:31:23.223Z,6.13
2023-03-19T19:33:51.780Z,5.63
2023-03-19T19:36:20.284Z,4.97
2023-03-19T19:38:51.936Z,4.90
2023-03-19T19:41:21.032Z,4.63
2023-03-19T19:43:49.499Z,5.27
2023-03-19T19:46:18.106Z,5.40
2023-03-19T19:48:46.747Z,6.00
2023-03-19T19:51:19.265Z,5.37
2023-03-19T19:53:48.397Z,6.17
2023-03-19T19:56:19.032Z,5.47
2023-03-19T19:58:47.613Z,6.63
2023-03-19T20:01:16.946Z,5.13
2023-03-19T20:03:45.785Z,5.53
2023-03-19T20:06:14.487Z,4.53
2023-03-19T20:08:43.076Z,4.83
2023-03-19T20:11:16.896Z,4.80
2023-03-19T20:13:51.464Z,5.40
2023-03-19T20:16:20.133Z,5.67
2023-03-19T20:18:50.998Z,5.43
2023-03-19T20:21:19.588Z,5.60
2023-03-19T20:23:51.130Z,5.57
2023-03-19T20:26:20.878Z,4.80
2023-03-19T20:28:51.061Z,5.30
2023-03-19T20:31:21.362Z,4.90
2023-03-19T20:33:49.974Z,4.83
2023-03-19T20:36:19.633Z,4.73
2023-03-19T20:38:48.158Z,5.70
2023-03-19T20:41:20.232Z,5.13
2023-03-19T20:43:48.713Z,6.83
2023-03-19T20:46:18.810Z,5.47
2023-03-19T20:48:47.890Z,5.37
2023-03-19T20:51:17.439Z,5.63
2023-03-19T20:53:45.856Z,6.33
2023-03-19T20:56:15.935Z,5.30
2023-03-19T20:58:44.377Z,5.43
2023-03-19T21:01:14.299Z,5.70
2023-03-19T21:03:44.468Z,5.70
2023-03-19T21:06:14.767Z,5.20
2023-03-19T21:08:43.458Z,6.17
2023-03-19T21:11:12.537Z,5.47
2023-03-19T21:13:41.358Z,6.67
2023-03-19T21:16:11.065Z,7.87
2023-03-19T21:18:39.561Z,7.90
2023-03-19T21:21:12.155Z,9.80
2023-03-19T21:23:40.571Z,11.27
2023-03-19T21:26:10.348Z,7.70
2023-03-19T21:28:39.119Z,8.40
2023-03-19T21:31:07.712Z,8.13
2023-03-19T21:33:37.097Z,7.50
2023-03-19T21:36:06.416Z,7.77
2023-03-19T21:38:36.472Z,8.30
2023-03-19T21:41:05.568Z,7.80
2023-03-19T21:43:34.982Z,7.90
2023-03-19T21:46:17.367Z,8.40
2023-03-19T21:48:46.342Z,7.93
2023-03-19T21:51:16.350Z,7.50
2023-03-19T21:53:47.708Z,7.33
2023-03-19T21:56:19.453Z,7.47
2023-03-19T21:58:48.202Z,6.90
2023-03-19T22:01:18.091Z,6.67
2023-03-19T22:03:46.975Z,5.87
2023-03-19T22:06:17.073Z,7.97
2023-03-19T22:08:48.285Z,6.77
2023-03-19T22:11:18.003Z,8.37
2023-03-19T22:13:46.461Z,8.20
2023-03-19T22:16:18.275Z,8.27
2023-03-19T22:18:46.775Z,8.77
2023-03-19T22:21:16.572Z,8.53
2023-03-19T22:23:46.062Z,9.60
2023-03-19T22:26:27.231Z,9.30
2023-03-19T22:28:55.910Z,9.00
2023-03-19T22:31:24.647Z,9.17
2023-03-19T22:33:53.246Z,9.40
2023-03-19T22:36:21.624Z,8.63
2023-03-19T22:38:50.090Z,8.33
2023-03-19T22:41:19.412Z,8.13
2023-03-19T22:43:49.224Z,7.20
2023-03-19T22:46:18.469Z,7.63
2023-03-19T22:48:48.564Z,7.60
2023-03-19T22:51:17.505Z,7.50
2023-03-19T22:53:46.144Z,6.70
2023-03-19T22:56:17.014Z,6.87
2023-03-19T22:58:46.925Z,7.40
2023-03-19T23:01:29.245Z,8.10
2023-03-19T23:03:57.999Z,8.07
2023-03-19T23:06:30.732Z,7.77
2023-03-19T23:08:59.465Z,8.13
2023-03-19T23:11:28.240Z,8.60
2023-03-19T23:13:56.936Z,9.33
2023-03-19T23:16:26.940Z,9.23
2023-03-19T23:18:58.038Z,9.20
2023-03-19T23:21:26.782Z,9.20
2023-03-19T23:23:55.248Z,8.97
2023-03-19T23:26:25.482Z,9.03
2023-03-19T23:28:54.342Z,9.90
2023-03-19T23:31:22.787Z,10.03
2023-03-19T23:33:52.814Z,9.27
2023-03-19T23:36:22.016Z,9.60
2023-03-19T23:38:51.844Z,9.93
2023-03-19T23:41:23.971Z,9.60
2023-03-19T23:43:53.204Z,10.60
2023-03-19T23:46:21.640Z,9.80
2023-03-19T23:48:51.960Z,10.00
2023-03-19T23:51:20.765Z,8.90
2023-03-19T23:53:49.389Z,8.40
2023-03-19T23:56:19.996Z,8.43
2023-03-19T23:58:48.597Z,7.63
